Time;durP1;ratioP1;P1;durP2;ratioP2;P2;SDS_P1;SDS_P2;PMS_P1;PMS_P2;Temp;Humidity;BMP_temperature;BMP_pressure;BME280_temperature;BME280_humidity;BME280_pressure;Samples;Min_cycle;Max_cycle;Signal;HPM_P1;HPM_P2
2023/08/05 00:01:27;;;;;;;;;;;;;;;;;;4968990;28;19976;-86
2023/08/05 00:03:52;;;;;;;;;;;;;;;;;;4985372;28;19980;-85
2023/08/05 00:06:18;;;;;;;;;;;;;;;;;;4983907;28;19925;-85
2023/08/05 00:08:44;;;;;;;;;;;;;;;;;;4982013;28;19922;-85
2023/08/05 00:11:10;;;;;;;;;;;;;;;;;;4984357;28;20036;-85
2023/08/05 00:13:36;;;;;;;;;;;;;;;;;;4968102;28;20012;-85
2023/08/05 00:16:02;;;;;;;;;;;;;;;;;;4984089;28;20568;-86
2023/08/05 00:18:28;;;;;;;;;;;;;;;;;;4966538;28;19980;-85
2023/08/05 00:20:54;;;;;;;;;;;;;;;;;;4961122;28;20393;-85
2023/08/05 00:23:20;;;;;;;;;;;;;;;;;;4964718;28;19972;-86
2023/08/05 00:25:46;;;;;;;;;;;;;;;;;;4963163;28;20032;-85
2023/08/05 00:28:12;;;;;;;;;;;;;;;;;;4942677;28;19980;-86
2023/08/05 00:30:38;;;;;;;;;;;;;;;;;;4964768;28;19951;-86
2023/08/05 00:33:03;;;;;;;;;;;;;;;;;;4948903;28;19922;-85
2023/08/05 00:35:29;;;;;;;;;;;;;;;;;;4964801;28;21603;-84
2023/08/05 00:37:55;;;;;;;;;;;;;;;;;;4950602;28;19961;-85
2023/08/05 00:40:21;;;;;;;;;;;;;;;;;;4964465;28;19949;-85
2023/08/05 00:42:47;;;;;;;;;;;;;;;;;;4963581;28;19988;-84
2023/08/05 00:45:13;;;;;;;;;;;;;;;;;;4963715;28;19922;-85
2023/08/05 00:47:39;;;;;;;;;;;;;;;;;;4962877;28;19925;-85
2023/08/05 00:50:05;;;;;;;;;;;;;;;;;;4952433;28;19926;-85
2023/08/05 00:52:31;;;;;;;;;;;;;;;;;;4952984;28;19926;-85
2023/08/05 00:54:57;;;;;;;;;;;;;;;;;;4967963;28;19988;-84
2023/08/05 00:57:23;;;;;;;;;;;;;;;;;;4971830;28;19921;-85
2023/08/05 00:59:49;;;;;;;;;;;;;;;;;;4956919;28;20057;-86
2023/08/05 01:02:15;;;;;;;;;;;;;;;;;;4957695;28;19984;-86
2023/08/05 01:04:41;;;;;;;;;;;;;;;;;;4956378;28;20362;-85
2023/08/05 01:07:07;;;;;;;;;;;;;;;;;;4973884;28;19926;-86
2023/08/05 01:09:33;;;;;;;;;;;;;;;;;;4971582;28;20370;-86
2023/08/05 01:11:58;;;;;;;;;;;;;;;;;;4972645;28;19984;-84
2023/08/05 01:14:24;;;;;;;;;;;;;;;;;;4971605;28;19926;-87
2023/08/05 01:16:50;;;;;;;;;;;;;;;;;;4971558;28;19925;-86
2023/08/05 01:19:16;;;;;;;;;;;;;;;;;;4968299;28;19930;-85
2023/08/05 01:21:42;;;;;;;;;;;;;;;;;;4968714;28;19926;-86
2023/08/05 01:24:08;;;;;;;;;;;;;;;;;;4967450;28;20285;-86
2023/08/05 01:26:34;;;;;;;;;;;;;;;;;;4965541;28;19930;-85
2023/08/05 01:29:00;;;;;;;;;;;;;;;;;;4966390;28;19928;-86
2023/08/05 01:31:26;;;;;;;;;;;;;;;;;;4968315;28;20261;-85
2023/08/05 01:33:52;;;;;;;;;;;;;;;;;;4952470;28;19929;-85
2023/08/05 01:36:18;;;;;;;;;;;;;;;;;;4969217;28;19993;-86
2023/08/05 01:38:47;;;;;;;;;;;;;;;;;;4967864;28;19991;-85
2023/08/05 01:41:13;;;;;;;;;;;;;;;;;;4968568;28;19964;-85
2023/08/05 01:43:39;;;;;;;;;;;;;;;;;;4951163;28;20421;-86
2023/08/05 01:46:05;;;;;;;;;;;;;;;;;;4966043;28;19926;-84
2023/08/05 01:48:31;;;;;;;;;;;;;;;;;;4967363;28;19926;-85
2023/08/05 01:50:57;;;;;;;;;;;;;;;;;;4949981;28;20461;-85
2023/08/05 01:53:23;;;;;;;;;;;;;;;;;;4967558;28;19922;-85
2023/08/05 01:55:48;;;;;;;;;;;;;;;;;;4964677;28;19932;-85
2023/08/05 01:58:14;;;;;;;;;;;;;;;;;;4963534;28;20160;-86
2023/08/05 02:00:40;;;;;;;;;;;;;;;;;;4950963;28;20408;-85
2023/08/05 02:03:06;;;;;;;;;;;;;;;;;;4967998;28;20267;-85
2023/08/05 02:05:32;;;;;;;;;;;;;;;;;;4965247;28;19922;-85
2023/08/05 02:07:58;;;;;;;;;;;;;;;;;;4965607;28;19980;-85
2023/08/05 02:10:24;;;;;;;;;;;;;;;;;;4966155;28;19926;-85
2023/08/05 02:12:53;;;;;;;;;;;;;;;;;;4963977;28;20013;-85
2023/08/05 02:15:19;;;;;;;;;;;;;;;;;;4965411;28;19925;-85
2023/08/05 02:17:45;;;;;;;;;;;;;;;;;;4966719;28;20274;-85
2023/08/05 02:20:11;;;;;;;;;;;;;;;;;;4944377;28;19926;-85
2023/08/05 02:22:37;;;;;;;;;;;;;;;;;;4945871;28;21161;-85
2023/08/05 02:25:02;;;;;;;;;;;;;;;;;;4961502;28;20365;-85
2023/08/05 02:27:28;;;;;;;;;;;;;;;;;;4961055;28;20228;-85
2023/08/05 02:29:54;;;;;;;;;;;;;;;;;;4961404;28;19948;-86
2023/08/05 02:32:20;;;;;;;;;;;;;;;;;;4946790;28;19914;-86
2023/08/05 02:34:46;;;;;;;;;;;;;;;;;;4947149;28;19949;-85
2023/08/05 02:37:12;;;;;;;;;;;;;;;;;;4947822;28;19918;-85
2023/08/05 02:39:38;;;;;;;;;;;;;;;;;;4959408;28;19933;-85
2023/08/05 02:42:04;;;;;;;;;;;;;;;;;;4963069;28;19929;-84
2023/08/05 02:44:30;;;;;;;;;;;;;;;;;;4959706;28;19921;-86
2023/08/05 02:46:56;;;;;;;;;;;;;;;;;;4945693;28;19967;-85
2023/08/05 02:49:22;;;;;;;;;;;;;;;;;;4950525;28;19926;-85
2023/08/05 02:51:48;;;;;;;;;;;;;;;;;;4964783;28;20483;-85
2023/08/05 02:54:14;;;;;;;;;;;;;;;;;;4951777;28;19933;-87
2023/08/05 02:56:40;;;;;;;;;;;;;;;;;;4949114;28;19926;-86
2023/08/05 02:59:06;;;;;;;;;;;;;;;;;;4950173;28;19926;-86
2023/08/05 03:01:32;;;;;;;;;;;;;;;;;;4949674;28;19933;-86
2023/08/05 03:03:58;;;;;;;;;;;;;;;;;;4965860;28;19933;-86
2023/08/05 03:06:24;;;;;;;;;;;;;;;;;;4950262;28;20290;-86
2023/08/05 03:08:49;;;;;;;;;;;;;;;;;;4965680;28;19929;-85
2023/08/05 03:11:16;;;;;;;;;;;;;;;;;;4951472;28;19925;-86
2023/08/05 03:13:41;;;;;;;;;;;;;;;;;;4949689;28;20373;-86
2023/08/05 03:16:07;;;;;;;;;;;;;;;;;;4949733;28;19922;-86
2023/08/05 03:18:33;;;;;;;;;;;;;;;;;;4949716;28;20056;-86
2023/08/05 03:20:59;;;;;;;;;;;;;;;;;;4965307;28;20008;-85
2023/08/05 03:23:25;;;;;;;;;;;;;;;;;;4947743;28;20042;-86
2023/08/05 03:25:51;;;;;;;;;;;;;;;;;;4965820;28;19948;-86
2023/08/05 03:28:17;;;;;;;;;;;;;;;;;;4964444;28;19933;-85
2023/08/05 03:30:43;;;;;;;;;;;;;;;;;;4965080;28;19961;-85
2023/08/05 03:33:09;;;;;;;;;;;;;;;;;;4950805;28;21347;-85
2023/08/05 03:35:35;;;;;;;;;;;;;;;;;;4949401;28;19922;-85
2023/08/05 03:38:00;;;;;;;;;;;;;;;;;;4965933;28;19961;-85
2023/08/05 03:40:26;;;;;;;;;;;;;;;;;;4948859;28;20366;-86
2023/08/05 03:42:52;;;;;;;;;;;;;;;;;;4964116;28;20021;-87
2023/08/05 03:45:18;;;;;;;;;;;;;;;;;;4982662;28;19921;-85
2023/08/05 03:47:49;;;;;;;;;;;;;;;;;;4948782;28;19926;-85
2023/08/05 03:50:15;;;;;;;;;;;;;;;;;;4963510;28;20711;-85
2023/08/05 03:52:42;;;;;;;;;;;;;;;;;;4965192;28;19925;-85
2023/08/05 03:55:08;;;;;;;;;;;;;;;;;;4947623;28;20306;-86
2023/08/05 03:57:34;;;;;;;;;;;;;;;;;;4965657;28;19921;-85
2023/08/05 04:00:00;;;;;;;;;;;;;;;;;;4948101;28;20044;-85
2023/08/05 04:02:26;;;;;;;;;;;;;;;;;;4965476;28;19980;-86
2023/08/05 04:04:52;;;;;;;;;;;;;;;;;;4947861;28;19932;-85
2023/08/05 04:07:24;;;;;;;;;;;;;;;;;;4949582;28;20302;-86
2023/08/05 04:09:52;;;;;;;;;;;;;;;;;;4965607;28;19926;-85
2023/08/05 04:12:18;;;;;;;;;;;;;;;;;;4946545;28;19933;-85
2023/08/05 04:14:44;;;;;;;;;;;;;;;;;;4948254;28;19925;-85
2023/08/05 04:17:10;;;;;;;;;;;;;;;;;;4965960;28;20460;-86
2023/08/05 04:19:37;;;;;;;;;;;;;;;;;;4979190;28;19926;-85
2023/08/05 04:22:03;;;;;;;;;;;;;;;;;;4947272;28;20461;-85
2023/08/05 04:24:29;;;;;;;;;;;;;;;;;;4963379;28;20024;-85
2023/08/05 04:26:55;;;;;;;;;;;;;;;;;;4964650;28;19941;-85
2023/08/05 04:29:22;;;;;;;;;;;;;;;;;;4979695;28;20016;-85
2023/08/05 04:31:48;;;;;;;;;;;;;;;;;;4963237;28;19932;-85
2023/08/05 04:34:14;;;;;;;;;;;;;;;;;;4948764;28;19921;-85
2023/08/05 04:36:40;;;;;;;;;;;;;;;;;;4949362;28;19976;-85
2023/08/05 04:39:06;;;;;;;;;;;;;;;;;;4948195;28;19926;-85
2023/08/05 04:41:32;;;;;;;;;;;;;;;;;;4987795;28;19918;-84
2023/08/05 04:43:58;;;;;;;;;;;;;;;;;;4962770;28;20929;-85
2023/08/05 04:46:24;;;;;;;;;;;;;;;;;;4964660;28;19928;-87
2023/08/05 04:48:50;;;;;;;;;;;;;;;;;;4948377;28;20286;-85
2023/08/05 04:51:16;;;;;;;;;;;;;;;;;;4968749;28;19961;-85
2023/08/05 04:53:42;;;;;;;;;;;;;;;;;;4957332;28;19921;-85
2023/08/05 04:56:09;;;;;;;;;;;;;;;;;;4967377;28;20004;-85
2023/08/05 04:58:35;;;;;;;;;;;;;;;;;;4950136;28;19996;-85
2023/08/05 05:01:01;;;;;;;;;;;;;;;;;;4951450;28;19984;-85
2023/08/05 05:03:27;;;;;;;;;;;;;;;;;;4952083;28;20317;-85
2023/08/05 05:05:53;;;;;;;;;;;;;;;;;;4951818;28;19933;-85
2023/08/05 05:08:19;;;;;;;;;;;;;;;;;;4968651;28;19933;-85
2023/08/05 05:10:45;;;;;;;;;;;;;;;;;;4968471;28;20010;-85
2023/08/05 05:13:14;;;;;;;;;;;;;;;;;;4968217;28;19952;-86
2023/08/05 05:15:40;;;;;;;;;;;;;;;;;;4989386;28;19925;-85
2023/08/05 05:18:06;;;;;;;;;;;;;;;;;;4952161;28;19933;-86
2023/08/05 05:20:32;;;;;;;;;;;;;;;;;;4965868;28;19926;-85
2023/08/05 05:22:58;;;;;;;;;;;;;;;;;;4967705;28;20005;-85
2023/08/05 05:25:24;;;;;;;;;;;;;;;;;;4947145;28;19930;-85
2023/08/05 05:27:50;;;;;;;;;;;;;;;;;;4947154;28;19922;-85
2023/08/05 05:30:16;;;;;;;;;;;;;;;;;;4964027;28;19932;-84
2023/08/05 05:32:42;;;;;;;;;;;;;;;;;;4949381;28;19926;-84
2023/08/05 05:35:08;;;;;;;;;;;;;;;;;;4964154;28;20731;-86
2023/08/05 05:37:34;;;;;;;;;;;;;;;;;;4965147;28;19951;-84
2023/08/05 05:40:00;;;;;;;;;;;;;;;;;;4951175;28;19968;-85
2023/08/05 05:42:26;;;;;;;;;;;;;;;;;;4967384;28;20428;-85
2023/08/05 05:44:53;;;;;;;;;;;;;;;;;;4949220;28;19925;-85
2023/08/05 05:47:19;;;;;;;;;;;;;;;;;;4968175;28;19961;-85
2023/08/05 05:49:46;;;;;;;;;;;;;;;;;;4966925;28;19921;-86
2023/08/05 05:52:15;;;;;;;;;;;;;;;;;;4951200;28;20462;-85
2023/08/05 05:54:41;;;;;;;;;;;;;;;;;;4951001;28;19932;-85
2023/08/05 05:57:07;;;;;;;;;;;;;;;;;;4983479;28;19926;-85
2023/08/05 05:59:33;;;;;;;;;;;;;;;;;;4950397;28;19933;-85
2023/08/05 06:01:59;;;;;;;;;;;;;;;;;;4951429;28;20267;-86
2023/08/05 06:04:28;;;;;;;;;;;;;;;;;;4966951;28;19969;-86
2023/08/05 06:06:54;;;;;;;;;;;;;;;;;;4966476;28;20003;-85
2023/08/05 06:09:20;;;;;;;;;;;;;;;;;;4951644;28;20378;-85
2023/08/05 06:11:49;;;;;;;;;;;;;;;;;;4966707;28;20435;-86
2023/08/05 06:14:15;;;;;;;;;;;;;;;;;;4981396;28;20549;-86
2023/08/05 06:16:41;;;;;;;;;;;;;;;;;;4966275;28;19933;-86
2023/08/05 06:19:07;;;;;;;;;;;;;;;;;;4964958;28;19922;-85
2023/08/05 06:21:33;;;;;;;;;;;;;;;;;;4959751;28;19964;-84
2023/08/05 06:23:59;;;;;;;;;;;;;;;;;;4961236;28;19925;-85
2023/08/05 06:26:26;;;;;;;;;;;;;;;;;;4946446;28;20327;-85
2023/08/05 06:28:52;;;;;;;;;;;;;;;;;;4960085;28;20285;-85
2023/08/05 06:31:18;;;;;;;;;;;;;;;;;;4965648;28;19921;-85
2023/08/05 06:33:44;;;;;;;;;;;;;;;;;;4949524;28;20158;-84
2023/08/05 06:36:13;;;;;;;;;;;;;;;;;;4947402;28;19925;-86
2023/08/05 06:38:42;;;;;;;;;;;;;;;;;;4948557;28;19970;-84
2023/08/05 06:41:08;;;;;;;;;;;;;;;;;;4962826;28;19992;-84
2023/08/05 06:43:34;;;;;;;;;;;;;;;;;;4962853;28;20389;-85
2023/08/05 06:46:00;;;;;;;;;;;;;;;;;;4968464;28;19952;-85
2023/08/05 06:48:26;;;;;;;;;;;;;;;;;;4961685;28;19936;-86
2023/08/05 06:50:52;;;;;;;;;;;;;;;;;;4966218;28;19925;-86
2023/08/05 06:53:18;;;;;;;;;;;;;;;;;;4954577;28;19995;-86
2023/08/05 06:55:44;;;;;;;;;;;;;;;;;;4951418;28;19925;-86
2023/08/05 06:58:10;;;;;;;;;;;;;;;;;;4948606;28;20188;-88
2023/08/05 07:00:36;;;;;;;;;;;;;;;;;;4965633;28;19930;-87
2023/08/05 07:03:02;;;;;;;;;;;;;;;;;;4956699;28;20003;-87
2023/08/05 07:05:29;;;;;;;;;;;;;;;;;;4971271;28;19932;-86
2023/08/05 07:07:55;;;;;;;;;;;;;;;;;;4977652;28;20016;-86
2023/08/05 07:10:21;;;;;;;;;;;;;;;;;;4953344;28;20002;-86
2023/08/05 07:12:47;;;;;;;;;;;;;;;;;;4971585;28;20362;-86
2023/08/05 07:15:15;;;;;;;;;;;;;;;;;;4981554;28;19933;-86
2023/08/05 07:17:44;;;;;;;;;;;;;;;;;;4971900;28;20429;-87
2023/08/05 07:20:10;;;;;;;;;;;;;;;;;;4968593;28;20356;-87
2023/08/05 07:22:36;;;;;;;;;;;;;;;;;;4969632;28;19921;-86
2023/08/05 07:25:02;;;;;;;;;;;;;;;;;;4967354;28;20068;-86
2023/08/05 07:27:28;;;;;;;;;;;;;;;;;;4949008;28;20299;-86
2023/08/05 07:29:54;;;;;;;;;;;;;;;;;;4954608;28;21460;-86
2023/08/05 07:32:20;;;;;;;;;;;;;;;;;;4968153;28;20443;-87
2023/08/05 07:34:47;;;;;;;;;;;;;;;;;;4954162;28;20357;-87
2023/08/05 07:37:14;;;;;;;;;;;;;;;;;;4989275;28;20067;-88
2023/08/05 07:39:45;;;;;;;;;;;;;;;;;;4970815;28;19988;-86
2023/08/05 07:42:11;;;;;;;;;;;;;;;;;;4980298;28;19948;-87
2023/08/05 07:44:42;;;;;;;;;;;;;;;;;;4970738;28;19967;-86
2023/08/05 07:47:09;;;;;;;;;;;;;;;;;;4958535;28;19921;-85
2023/08/05 07:49:36;;;;;;;;;;;;;;;;;;4948051;28;19972;-86
2023/08/05 07:52:04;;;;;;;;;;;;;;;;;;4950095;28;20440;-86
2023/08/05 07:54:30;;;;;;;;;;;;;;;;;;4969313;28;19925;-85
2023/08/05 07:56:58;;;;;;;;;;;;;;;;;;4984067;28;19932;-86
2023/08/05 07:59:25;;;;;;;;;;;;;;;;;;4986740;28;20405;-87
2023/08/05 08:01:53;;;;;;;;;;;;;;;;;;4962092;28;19929;-87
2023/08/05 08:04:19;;;;;;;;;;;;;;;;;;4966840;28;19926;-87
2023/08/05 08:06:45;;;;;;;;;;;;;;;;;;4970395;28;19929;-86
2023/08/05 08:09:13;;;;;;;;;;;;;;;;;;4962856;28;20347;-85
2023/08/05 08:11:38;;;;;;;;;;;;;;;;;;4948963;28;19929;-86
2023/08/05 08:14:04;;;;;;;;;;;;;;;;;;4948291;28;20267;-86
2023/08/05 08:16:31;;;;;;;;;;;;;;;;;;4946356;28;20378;-86
2023/08/05 08:18:56;;;;;;;;;;;;;;;;;;4949371;28;20008;-87
2023/08/05 08:21:23;;;;;;;;;;;;;;;;;;4957016;28;20014;-86
2023/08/05 08:23:49;;;;;;;;;;;;;;;;;;4956689;28;20219;-87
2023/08/05 08:26:15;;;;;;;;;;;;;;;;;;4927386;28;20267;-86
2023/08/05 08:28:41;;;;;;;;;;;;;;;;;;4933214;28;19957;-86
2023/08/05 08:31:07;;;;;;;;;;;;;;;;;;4947591;28;20287;-86
2023/08/05 08:33:33;;;;;;;;;;;;;;;;;;4953448;28;20330;-86
2023/08/05 08:35:59;;;;;;;;;;;;;;;;;;4927308;28;19925;-86
2023/08/05 08:38:25;;;;;;;;;;;;;;;;;;4943384;28;19926;-86
2023/08/05 08:40:51;;;;;;;;;;;;;;;;;;4932854;28;19929;-86
2023/08/05 08:43:17;;;;;;;;;;;;;;;;;;4932371;28;20024;-85
2023/08/05 08:45:43;;;;;;;;;;;;;;;;;;4933349;28;19941;-86
2023/08/05 08:48:09;;;;;;;;;;;;;;;;;;4959224;28;20562;-87
2023/08/05 08:50:35;;;;;;;;;;;;;;;;;;4940899;28;20479;-86
2023/08/05 08:53:01;;;;;;;;;;;;;;;;;;4942489;28;20503;-86
2023/08/05 08:55:27;;;;;;;;;;;;;;;;;;4942305;28;20521;-86
2023/08/05 08:57:53;;;;;;;;;;;;;;;;;;4940460;28;19934;-86
2023/08/05 09:00:19;;;;;;;;;;;;;;;;;;4922796;28;19948;-86
2023/08/05 09:02:45;;;;;;;;;;;;;;;;;;4943618;28;19926;-86
2023/08/05 09:05:11;;;;;;;;;;;;;;;;;;4926503;28;19933;-86
2023/08/05 09:07:37;;;;;;;;;;;;;;;;;;4961749;28;19934;-86
2023/08/05 09:10:03;;;;;;;;;;;;;;;;;;4965360;28;19929;-86
2023/08/05 09:12:30;;;;;;;;;;;;;;;;;;4938876;28;19937;-87
2023/08/05 09:14:56;;;;;;;;;;;;;;;;;;4934143;28;20020;-86
2023/08/05 09:17:22;;;;;;;;;;;;;;;;;;4947227;28;19925;-87
2023/08/05 09:19:48;;;;;;;;;;;;;;;;;;4936173;28;20016;-86
2023/08/05 09:22:14;;;;;;;;;;;;;;;;;;4935025;28;19933;-87
2023/08/05 09:24:40;;;;;;;;;;;;;;;;;;4953148;28;19926;-87
2023/08/05 09:27:06;;;;;;;;;;;;;;;;;;4934967;28;20022;-86
2023/08/05 09:29:36;;;;;;;;;;;;;;;;;;4933370;28;20295;-87
2023/08/05 09:32:02;;;;;;;;;;;;;;;;;;4955386;28;19922;-88
2023/08/05 09:34:28;;;;;;;;;;;;;;;;;;4932897;28;20000;-87
2023/08/05 09:37:00;;;;;;;;;;;;;;;;;;4950816;28;20058;-88
2023/08/05 09:39:36;;;;;;;;;;;;;;;;;;4968556;28;19926;-86
2023/08/05 09:42:03;;;;;;;;;;;;;;;;;;4984780;28;19932;-86
2023/08/05 09:44:29;;;;;;;;;;;;;;;;;;4982357;28;19925;-84
2023/08/05 09:46:56;;;;;;;;;;;;;;;;;;4950662;28;20374;-84
2023/08/05 09:49:22;;;;;;;;;;;;;;;;;;4980840;28;20005;-88
2023/08/05 09:51:50;;;;;;;;;;;;;;;;;;4951829;28;19925;-85
2023/08/05 09:54:16;;;;;;;;;;;;;;;;;;4955523;28;20419;-86
2023/08/05 09:56:43;;;;;;;;;;;;;;;;;;4965095;28;19921;-86
2023/08/05 09:59:08;;;;;;;;;;;;;;;;;;4982890;28;19929;-85
2023/08/05 10:01:34;;;;;;;;;;;;;;;;;;4964694;28;19932;-85
2023/08/05 10:04:01;;;;;;;;;;;;;;;;;;4979681;28;20028;-86
2023/08/05 10:06:27;;;;;;;;;;;;;;;;;;4946108;28;20448;-85
2023/08/05 10:08:53;;;;;;;;;;;;;;;;;;4965554;28;20290;-85
2023/08/05 10:11:19;;;;;;;;;;;;;;;;;;4934656;28;19976;-85
2023/08/05 10:13:45;;;;;;;;;;;;;;;;;;4959727;28;19925;-85
2023/08/05 10:16:12;;;;;;;;;;;;;;;;;;4956750;28;19948;-85
2023/08/05 10:18:38;;;;;;;;;;;;;;;;;;4946586;28;20017;-84
2023/08/05 10:21:06;;;;;;;;;;;;;;;;;;4947292;28;20369;-85
2023/08/05 10:23:31;;;;;;;;;;;;;;;;;;4932642;28;20021;-85
2023/08/05 10:25:57;;;;;;;;;;;;;;;;;;4952208;28;20001;-85
2023/08/05 10:28:23;;;;;;;;;;;;;;;;;;4930600;28;19933;-84
2023/08/05 10:30:49;;;;;;;;;;;;;;;;;;4952237;28;20495;-85
2023/08/05 10:33:18;;;;;;;;;;;;;;;;;;4947497;28;20317;-85
2023/08/05 10:35:44;;;;;;;;;;;;;;;;;;4961327;28;19926;-85
2023/08/05 10:38:10;;;;;;;;;;;;;;;;;;4943588;28;19937;-85
2023/08/05 10:40:36;;;;;;;;;;;;;;;;;;4945128;28;20248;-85
2023/08/05 10:43:02;;;;;;;;;;;;;;;;;;4957676;28;20313;-85
2023/08/05 10:45:28;;;;;;;;;;;;;;;;;;4946434;28;20538;-84
2023/08/05 10:47:54;;;;;;;;;;;;;;;;;;4952961;28;19949;-86
2023/08/05 10:50:20;;;;;;;;;;;;;;;;;;4964088;28;20430;-85
2023/08/05 10:52:46;;;;;;;;;;;;;;;;;;4950171;28;20379;-85
2023/08/05 10:55:12;;;;;;;;;;;;;;;;;;4925722;28;19939;-85
2023/08/05 10:57:38;;;;;;;;;;;;;;;;;;4927399;28;19953;-85
2023/08/05 11:00:06;;;;;;;;;;;;;;;;;;4945294;28;19922;-85
2023/08/05 11:02:32;;;;;;;;;;;;;;;;;;4944705;28;20204;-85
2023/08/05 11:04:58;;;;;;;;;;;;;;;;;;4944891;28;19933;-85
2023/08/05 11:07:24;;;;;;;;;;;;;;;;;;4945721;28;19972;-86
2023/08/05 11:09:50;;;;;;;;;;;;;;;;;;4941512;28;19956;-85
2023/08/05 11:12:18;;;;;;;;;;;;;;;;;;4928804;28;19953;-85
2023/08/05 11:14:44;;;;;;;;;;;;;;;;;;4944474;28;19930;-85
2023/08/05 11:17:11;;;;;;;;;;;;;;;;;;4942255;28;19930;-85
2023/08/05 11:19:37;;;;;;;;;;;;;;;;;;4949044;28;19926;-85
2023/08/05 11:22:03;;;;;;;;;;;;;;;;;;4961338;28;19930;-86
2023/08/05 11:24:29;;;;;;;;;;;;;;;;;;4964483;28;19928;-86
2023/08/05 11:26:55;;;;;;;;;;;;;;;;;;4963145;28;19930;-85
2023/08/05 11:29:21;;;;;;;;;;;;;;;;;;4945703;28;20513;-85
2023/08/05 11:31:47;;;;;;;;;;;;;;;;;;4963004;28;20279;-85
2023/08/05 11:34:13;;;;;;;;;;;;;;;;;;4962611;28;20283;-85
2023/08/05 11:36:39;;;;;;;;;;;;;;;;;;4980779;28;19926;-85
2023/08/05 11:39:05;;;;;;;;;;;;;;;;;;4963103;28;20008;-86
2023/08/05 11:41:34;;;;;;;;;;;;;;;;;;4961682;28;19987;-85
2023/08/05 11:44:00;;;;;;;;;;;;;;;;;;4977847;28;20092;-86
2023/08/05 11:46:26;;;;;;;;;;;;;;;;;;4965515;28;20020;-85
2023/08/05 11:48:52;;;;;;;;;;;;;;;;;;4962391;28;19929;-85
2023/08/05 11:51:18;;;;;;;;;;;;;;;;;;4961860;28;20389;-85
2023/08/05 11:53:44;;;;;;;;;;;;;;;;;;4944399;28;19932;-86
2023/08/05 11:56:10;;;;;;;;;;;;;;;;;;4962632;28;19953;-85
2023/08/05 11:58:36;;;;;;;;;;;;;;;;;;4962600;28;19964;-85
2023/08/05 12:01:04;;;;;;;;;;;;;;;;;;4966516;28;19921;-86
2023/08/05 12:03:32;;;;;;;;;;;;;;;;;;4963614;28;20609;-86
2023/08/05 12:05:58;;;;;;;;;;;;;;;;;;4950970;28;20371;-85
2023/08/05 12:08:24;;;;;;;;;;;;;;;;;;4970660;28;20013;-87
2023/08/05 12:10:50;;;;;;;;;;;;;;;;;;4947965;28;19930;-84
2023/08/05 12:13:16;;;;;;;;;;;;;;;;;;4962243;28;21473;-86
2023/08/05 12:15:42;;;;;;;;;;;;;;;;;;4961080;28;20381;-86
2023/08/05 12:18:08;;;;;;;;;;;;;;;;;;4982137;28;20404;-86
2023/08/05 12:20:34;;;;;;;;;;;;;;;;;;4951531;28;19961;-85
2023/08/05 12:23:00;;;;;;;;;;;;;;;;;;4944935;28;21009;-87
2023/08/05 12:25:26;;;;;;;;;;;;;;;;;;4926238;28;20082;-86
2023/08/05 12:27:51;;;;;;;;;;;;;;;;;;4947988;28;20262;-86
2023/08/05 12:30:17;;;;;;;;;;;;;;;;;;4954978;28;20269;-85
2023/08/05 12:32:47;;;;;;;;;;;;;;;;;;4949020;28;19914;-86
2023/08/05 12:35:13;;;;;;;;;;;;;;;;;;4945407;28;19922;-85
2023/08/05 12:37:42;;;;;;;;;;;;;;;;;;4945569;28;19918;-85
2023/08/05 12:40:08;;;;;;;;;;;;;;;;;;4943292;28;19933;-86
2023/08/05 12:42:34;;;;;;;;;;;;;;;;;;4933520;28;19980;-86
2023/08/05 12:45:03;;;;;;;;;;;;;;;;;;4925053;28;19922;-86
2023/08/05 12:47:29;;;;;;;;;;;;;;;;;;4929494;28;20021;-86
2023/08/05 12:49:55;;;;;;;;;;;;;;;;;;4928097;28;20005;-86
2023/08/05 12:52:21;;;;;;;;;;;;;;;;;;4932924;28;19926;-86
2023/08/05 12:54:47;;;;;;;;;;;;;;;;;;4951894;28;20185;-85
2023/08/05 12:57:19;;;;;;;;;;;;;;;;;;4949328;28;20013;-87
2023/08/05 12:59:45;;;;;;;;;;;;;;;;;;4932551;28;19922;-85
2023/08/05 13:02:11;;;;;;;;;;;;;;;;;;4929136;28;20197;-86
2023/08/05 13:04:37;;;;;;;;;;;;;;;;;;4939526;28;19922;-85
2023/08/05 13:07:03;;;;;;;;;;;;;;;;;;4929301;28;19976;-86
2023/08/05 13:09:31;;;;;;;;;;;;;;;;;;4931801;28;19930;-85
2023/08/05 13:11:57;;;;;;;;;;;;;;;;;;4932716;28;19926;-85
2023/08/05 13:14:23;;;;;;;;;;;;;;;;;;4933516;28;19936;-86
2023/08/05 13:16:49;;;;;;;;;;;;;;;;;;4923889;28;19936;-85
2023/08/05 13:19:16;;;;;;;;;;;;;;;;;;4953327;28;19922;-86
2023/08/05 13:21:42;;;;;;;;;;;;;;;;;;4969150;28;19925;-85
2023/08/05 13:24:08;;;;;;;;;;;;;;;;;;4953525;28;20018;-86
2023/08/05 13:26:34;;;;;;;;;;;;;;;;;;4974230;28;20566;-87
2023/08/05 13:29:00;;;;;;;;;;;;;;;;;;4953068;28;20449;-86
2023/08/05 13:31:26;;;;;;;;;;;;;;;;;;4969961;28;19960;-86
2023/08/05 13:33:52;;;;;;;;;;;;;;;;;;4966392;28;20024;-85
2023/08/05 13:36:18;;;;;;;;;;;;;;;;;;4983822;28;19925;-85
2023/08/05 13:38:46;;;;;;;;;;;;;;;;;;4954758;28;19929;-86
2023/08/05 13:41:12;;;;;;;;;;;;;;;;;;4979170;28;20016;-85
2023/08/05 13:43:38;;;;;;;;;;;;;;;;;;4968697;28;20020;-85
2023/08/05 13:46:03;;;;;;;;;;;;;;;;;;4946702;28;19921;-86
2023/08/05 13:48:32;;;;;;;;;;;;;;;;;;4975567;28;19929;-85
2023/08/05 13:50:58;;;;;;;;;;;;;;;;;;4977775;28;19925;-85
2023/08/05 13:53:24;;;;;;;;;;;;;;;;;;4987000;28;19933;-85
2023/08/05 13:55:50;;;;;;;;;;;;;;;;;;4967055;28;20303;-84
2023/08/05 13:58:16;;;;;;;;;;;;;;;;;;4990333;28;19929;-85
2023/08/05 14:00:42;;;;;;;;;;;;;;;;;;4967676;28;19977;-86
2023/08/05 14:03:08;;;;;;;;;;;;;;;;;;4970729;28;19921;-86
2023/08/05 14:05:34;;;;;;;;;;;;;;;;;;4968284;28;19929;-85
2023/08/05 14:08:00;;;;;;;;;;;;;;;;;;4971220;28;20210;-85
2023/08/05 14:10:26;;;;;;;;;;;;;;;;;;4951574;28;19926;-85
2023/08/05 14:12:52;;;;;;;;;;;;;;;;;;4969992;28;19969;-86
2023/08/05 14:15:18;;;;;;;;;;;;;;;;;;4971955;28;19976;-86
2023/08/05 14:17:44;;;;;;;;;;;;;;;;;;4955630;28;19999;-85
2023/08/05 14:20:10;;;;;;;;;;;;;;;;;;4941415;28;20275;-86
2023/08/05 14:22:36;;;;;;;;;;;;;;;;;;4948162;28;19953;-86
2023/08/05 14:25:02;;;;;;;;;;;;;;;;;;4949315;28;19965;-85
2023/08/05 14:27:28;;;;;;;;;;;;;;;;;;4928512;28;20151;-86
2023/08/05 14:29:54;;;;;;;;;;;;;;;;;;4945782;28;19930;-85
2023/08/05 14:32:20;;;;;;;;;;;;;;;;;;4945152;28;19930;-84
2023/08/05 14:34:48;;;;;;;;;;;;;;;;;;4948552;28;19926;-86
2023/08/05 14:37:14;;;;;;;;;;;;;;;;;;4928363;28;19930;-85
2023/08/05 14:39:40;;;;;;;;;;;;;;;;;;4954786;28;20381;-85
2023/08/05 14:42:06;;;;;;;;;;;;;;;;;;4946009;28;20370;-85
2023/08/05 14:44:32;;;;;;;;;;;;;;;;;;4943962;28;19937;-85
2023/08/05 14:46:58;;;;;;;;;;;;;;;;;;4931189;28;19926;-83
2023/08/05 14:49:24;;;;;;;;;;;;;;;;;;4929122;28;19926;-85
2023/08/05 14:51:50;;;;;;;;;;;;;;;;;;4947743;28;20306;-85
2023/08/05 14:54:16;;;;;;;;;;;;;;;;;;4945752;28;20072;-85
2023/08/05 14:56:42;;;;;;;;;;;;;;;;;;4943523;28;20009;-86
2023/08/05 14:59:08;;;;;;;;;;;;;;;;;;4946949;28;19930;-86
2023/08/05 15:01:34;;;;;;;;;;;;;;;;;;4948558;28;20449;-88
2023/08/05 15:04:00;;;;;;;;;;;;;;;;;;4951763;28;19979;-87
2023/08/05 15:06:26;;;;;;;;;;;;;;;;;;4970599;28;19918;-88
2023/08/05 15:08:55;;;;;;;;;;;;;;;;;;4930244;28;19941;-88
2023/08/05 15:11:21;;;;;;;;;;;;;;;;;;4947003;28;20036;-87
2023/08/05 15:13:47;;;;;;;;;;;;;;;;;;4949265;28;19998;-86
2023/08/05 15:16:13;;;;;;;;;;;;;;;;;;4962258;28;20323;-86
2023/08/05 15:18:39;;;;;;;;;;;;;;;;;;4950677;28;19925;-86
2023/08/05 15:36:32;;;;;;;;;;;;;;;;;;4967934;28;19929;-87
2023/08/05 15:39:01;;;;;;;;;;;;;;;;;;4943684;28;19925;-85
2023/08/05 15:41:27;;;;;;;;;;;;;;;;;;4952669;28;19926;-85
2023/08/05 15:43:52;;;;;;;;;;;;;;;;;;4926478;28;21447;-86
2023/08/05 15:46:18;;;;;;;;;;;;;;;;;;4941514;28;19918;-85
2023/08/05 15:48:44;;;;;;;;;;;;;;;;;;4965967;28;19929;-85
2023/08/05 15:51:10;;;;;;;;;;;;;;;;;;4951790;28;19934;-85
2023/08/05 15:53:36;;;;;;;;;;;;;;;;;;4931243;28;19980;-88
2023/08/05 15:56:03;;;;;;;;;;;;;;;;;;4945668;28;19930;-88
2023/08/05 15:58:29;;;;;;;;;;;;;;;;;;4932848;28;19930;-90
2023/08/05 16:00:56;;;;;;;;;;;;;;;;;;4951175;28;19933;-89
2023/08/05 16:03:24;;;;;;;;;;;;;;;;;;4951002;28;19926;-90
2023/08/05 16:05:50;;;;;;;;;;;;;;;;;;4926947;28;20361;-88
2023/08/05 16:08:16;;;;;;;;;;;;;;;;;;4945785;28;20016;-89
2023/08/05 16:11:00;;;;;;;;;;;;;;;;;;4947304;28;19972;-89
2023/08/05 16:13:40;;;;;;;;;;;;;;;;;;4948805;28;20382;-90
2023/08/05 16:16:12;;;;;;;;;;;;;;;;;;4942192;28;19926;-89
2023/08/05 16:18:44;;;;;;;;;;;;;;;;;;4923577;28;19930;-90
2023/08/05 16:21:17;;;;;;;;;;;;;;;;;;4948862;28;20366;-90
2023/08/05 16:23:53;;;;;;;;;;;;;;;;;;;;;
2023/08/05 16:26:25;;;;;;;;;;;;;;;;;;4945131;28;19933;-89
2023/08/05 16:28:57;;;;;;;;;;;;;;;;;;4930784;28;19980;-89
2023/08/05 16:31:23;;;;;;;;;;;;;;;;;;4930061;28;20387;-90
2023/08/05 16:34:04;;;;;;;;;;;;;;;;;;4931027;28;19926;-89
2023/08/05 16:36:36;;;;;;;;;;;;;;;;;;4930530;28;19930;-88
2023/08/05 16:39:12;;;;;;;;;;;;;;;;;;4947827;28;19926;-88
2023/08/05 16:41:41;;;;;;;;;;;;;;;;;;4931181;28;19930;-90
2023/08/05 16:44:10;;;;;;;;;;;;;;;;;;4929206;28;19957;-90
2023/08/05 16:46:36;;;;;;;;;;;;;;;;;;4929127;28;20017;-90
2023/08/05 16:49:02;;;;;;;;;;;;;;;;;;4929571;28;19922;-90
2023/08/05 16:51:29;;;;;;;;;;;;;;;;;;4945537;28;19930;-90
2023/08/05 16:54:00;;;;;;;;;;;;;;;;;;4926716;28;19930;-89
2023/08/05 16:56:29;;;;;;;;;;;;;;;;;;4949800;28;19933;-90